AAL921 KSAN-KSLC
Flight info
| Callsign | AAL921 |
|---|---|
| Flight time | 1h 7m |
| Altitude | 39000 |
| Route | ZZOOO4 MTBAL CADEZ/N0464F380 HAKMN/N0464F390 Q73 LAKRR MLF QWENN6 |
| Aircraft | MD11/H-SDE1E2E3FGHIJ2J3J4J5M1RWXY/LB1D1 |
Departure
| Time | 2026-05-04 20:35 |
|---|---|
| Airport | San Diego International Airport (KSAN) |
Arrival
| Time | 2026-05-04 21:43 |
|---|---|
| Airport | Salt Lake City International Airport (KSLC) |
| Time | Latitude | Longitude | Altitude | Speed | Heading |
|---|---|---|---|---|---|
| 2026-05-04 20:01 | 32.73670 | -117.18503 | 33 ft | 0 kts | 355° |
| 2026-05-04 20:24 | 32.73652 | -117.18501 | 30 ft | 3 kts | 355° |
| 2026-05-04 20:24 | 32.73633 | -117.18499 | 31 ft | 3 kts | 355° |
| 2026-05-04 20:24 | 32.73620 | -117.18498 | 31 ft | 0 kts | 355° |
| 2026-05-04 20:24 | 32.73610 | -117.18496 | 29 ft | 3 kts | 355° |
| 2026-05-04 20:25 | 32.73604 | -117.18496 | 31 ft | 3 kts | 355° |
| 2026-05-04 20:25 | 32.73586 | -117.18494 | 30 ft | 3 kts | 355° |
| 2026-05-04 20:25 | 32.73568 | -117.18492 | 28 ft | 3 kts | 355° |
| 2026-05-04 20:26 | 32.73552 | -117.18491 | 29 ft | 3 kts | 355° |
| 2026-05-04 20:26 | 32.73534 | -117.18489 | 29 ft | 3 kts | 355° |
| 2026-05-04 20:26 | 32.73517 | -117.18487 | 30 ft | 3 kts | 355° |
| 2026-05-04 20:26 | 32.73519 | -117.18485 | 29 ft | 2 kts | 7° |
| 2026-05-04 20:27 | 32.73530 | -117.18471 | 29 ft | 3 kts | 56° |
| 2026-05-04 20:27 | 32.73529 | -117.18448 | 28 ft | 3 kts | 106° |
| 2026-05-04 20:27 | 32.73486 | -117.18407 | 31 ft | 14 kts | 156° |
| 2026-05-04 20:27 | 32.73474 | -117.18404 | 31 ft | 0 kts | 166° |
| 2026-05-04 20:32 | 32.73469 | -117.18403 | 31 ft | 5 kts | 168° |
| 2026-05-04 20:32 | 32.73393 | -117.18398 | 32 ft | 14 kts | 175° |
| 2026-05-04 20:32 | 32.73312 | -117.18314 | 30 ft | 19 kts | 114° |
| 2026-05-04 20:32 | 32.73265 | -117.18140 | 31 ft | 25 kts | 103° |
| 2026-05-04 20:33 | 32.73216 | -117.17912 | 31 ft | 31 kts | 105° |
| 2026-05-04 20:33 | 32.73158 | -117.17668 | 32 ft | 28 kts | 107° |
| 2026-05-04 20:33 | 32.73134 | -117.17603 | 31 ft | 0 kts | 122° |
| 2026-05-04 20:34 | 32.73134 | -117.17602 | 31 ft | 0 kts | 122° |
| 2026-05-04 20:34 | 32.73123 | -117.17585 | 31 ft | 8 kts | 128° |
| 2026-05-04 20:34 | 32.73053 | -117.17538 | 32 ft | 7 kts | 175° |
| 2026-05-04 20:34 | 32.73029 | -117.17559 | 32 ft | 3 kts | 239° |
| 2026-05-04 20:35 | 32.73029 | -117.17613 | 31 ft | 11 kts | 278° |
| 2026-05-04 20:35 | 32.73104 | -117.17944 | 28 ft | 94 kts | 287° |
| 2026-05-04 20:35 | 32.73385 | -117.19068 | 303 ft | 168 kts | 287° |
| 2026-05-04 20:35 | 32.73726 | -117.20429 | 1667 ft | 178 kts | 286° |
| 2026-05-04 20:36 | 32.74121 | -117.21901 | 2831 ft | 197 kts | 289° |
| 2026-05-04 20:36 | 32.74565 | -117.23438 | 4035 ft | 198 kts | 287° |
| 2026-05-04 20:36 | 32.74930 | -117.25004 | 5363 ft | 194 kts | 285° |
| 2026-05-04 20:36 | 32.75342 | -117.26399 | 7079 ft | 159 kts | 291° |
| 2026-05-04 20:37 | 32.75600 | -117.27586 | 8461 ft | 153 kts | 279° |
| 2026-05-04 20:37 | 32.75886 | -117.28945 | 9009 ft | 181 kts | 290° |
| 2026-05-04 20:37 | 32.76430 | -117.30335 | 9376 ft | 194 kts | 279° |
| 2026-05-04 20:37 | 32.76383 | -117.31891 | 9906 ft | 188 kts | 241° |
| 2026-05-04 20:38 | 32.75461 | -117.32792 | 9747 ft | 183 kts | 196° |
| 2026-05-04 20:38 | 32.74136 | -117.32691 | 9335 ft | 192 kts | 171° |
| 2026-05-04 20:38 | 32.72825 | -117.31927 | 9628 ft | 230 kts | 140° |
| 2026-05-04 20:38 | 32.71863 | -117.30548 | 11016 ft | 198 kts | 136° |
| 2026-05-04 20:39 | 32.70988 | -117.29349 | 12138 ft | 191 kts | 148° |
| 2026-05-04 20:39 | 32.69810 | -117.28314 | 12243 ft | 229 kts | 154° |
| 2026-05-04 20:39 | 32.68424 | -117.27200 | 12424 ft | 249 kts | 154° |
| 2026-05-04 20:39 | 32.66944 | -117.26042 | 12667 ft | 261 kts | 155° |
| 2026-05-04 20:40 | 32.65384 | -117.24842 | 12888 ft | 273 kts | 152° |
| 2026-05-04 20:40 | 32.63893 | -117.23342 | 13119 ft | 289 kts | 141° |
| 2026-05-04 20:40 | 32.62738 | -117.21320 | 13363 ft | 308 kts | 115° |
| 2026-05-04 20:40 | 32.62261 | -117.18809 | 13597 ft | 314 kts | 106° |
| 2026-05-04 20:41 | 32.61834 | -117.16234 | 13797 ft | 324 kts | 107° |
| 2026-05-04 20:41 | 32.61379 | -117.13583 | 13942 ft | 332 kts | 107° |
| 2026-05-04 20:41 | 32.60894 | -117.10893 | 14104 ft | 337 kts | 108° |
| 2026-05-04 20:41 | 32.60399 | -117.08170 | 14277 ft | 342 kts | 105° |
| 2026-05-04 20:42 | 32.60046 | -117.05402 | 14454 ft | 326 kts | 101° |
| 2026-05-04 20:42 | 32.59920 | -117.02823 | 14456 ft | 312 kts | 90° |
| 2026-05-04 20:42 | 32.60270 | -117.00289 | 14201 ft | 312 kts | 79° |
| 2026-05-04 20:42 | 32.60760 | -116.97845 | 14276 ft | 306 kts | 79° |
| 2026-05-04 20:43 | 32.61225 | -116.95415 | 14888 ft | 297 kts | 82° |
| 2026-05-04 20:43 | 32.61521 | -116.93073 | 15903 ft | 292 kts | 86° |
| 2026-05-04 20:43 | 32.61788 | -116.90723 | 15964 ft | 323 kts | 86° |
| 2026-05-04 20:44 | 32.61996 | -116.88882 | 16034 ft | 342 kts | 86° |
| 2026-05-04 20:44 | 32.62272 | -116.86120 | 17105 ft | 327 kts | 88° |
| 2026-05-04 20:44 | 32.62491 | -116.83569 | 18619 ft | 295 kts | 89° |
| 2026-05-04 20:44 | 32.62626 | -116.81223 | 19654 ft | 278 kts | 96° |
| 2026-05-04 20:45 | 32.62674 | -116.78933 | 20214 ft | 289 kts | 92° |
| 2026-05-04 20:45 | 32.63037 | -116.76433 | 20214 ft | 325 kts | 77° |
| 2026-05-04 20:45 | 32.64122 | -116.73966 | 20354 ft | 350 kts | 49° |
| 2026-05-04 20:45 | 32.65955 | -116.72024 | 20607 ft | 360 kts | 25° |
| 2026-05-04 20:46 | 32.68279 | -116.70953 | 20931 ft | 358 kts | 0° |
| 2026-05-04 20:46 | 32.70746 | -116.70522 | 21495 ft | 359 kts | 358° |
| 2026-05-04 20:46 | 32.73222 | -116.70171 | 22240 ft | 359 kts | 356° |
| 2026-05-04 20:46 | 32.75733 | -116.69869 | 22787 ft | 368 kts | 355° |
| 2026-05-04 20:47 | 32.78360 | -116.69607 | 22896 ft | 389 kts | 354° |
| 2026-05-04 20:47 | 32.81133 | -116.69385 | 22950 ft | 411 kts | 357° |
| 2026-05-04 20:47 | 32.84045 | -116.68712 | 22701 ft | 441 kts | 10° |
| 2026-05-04 20:47 | 32.87022 | -116.67433 | 22778 ft | 458 kts | 17° |
| 2026-05-04 20:48 | 32.89952 | -116.65965 | 23011 ft | 473 kts | 18° |
| 2026-05-04 20:48 | 32.93041 | -116.64288 | 23070 ft | 491 kts | 20° |
| 2026-05-04 20:48 | 32.96196 | -116.62506 | 23055 ft | 513 kts | 21° |
| 2026-05-04 20:48 | 32.99486 | -116.60630 | 23051 ft | 535 kts | 21° |
| 2026-05-04 20:49 | 33.02865 | -116.58723 | 23044 ft | 551 kts | 20° |
| 2026-05-04 20:49 | 33.06355 | -116.56786 | 23026 ft | 555 kts | 20° |
| 2026-05-04 20:49 | 33.09865 | -116.54857 | 23001 ft | 555 kts | 20° |
| 2026-05-04 20:49 | 33.12362 | -116.53488 | 23010 ft | 554 kts | 20° |
| 2026-05-04 20:51 | 33.13400 | -116.52919 | 23011 ft | 554 kts | 20° |
| 2026-05-04 20:51 | 33.16905 | -116.51002 | 23000 ft | 553 kts | 20° |
| 2026-05-04 20:51 | 33.20412 | -116.49088 | 23005 ft | 554 kts | 20° |
| 2026-05-04 20:51 | 33.23912 | -116.47164 | 22982 ft | 553 kts | 20° |
| 2026-05-04 20:52 | 33.27409 | -116.45234 | 22995 ft | 553 kts | 21° |
| 2026-05-04 20:52 | 33.30891 | -116.43298 | 23007 ft | 551 kts | 20° |
| 2026-05-04 20:52 | 33.34360 | -116.41390 | 23012 ft | 546 kts | 20° |
| 2026-05-04 20:52 | 33.37684 | -116.39141 | 23007 ft | 552 kts | 32° |
| 2026-05-04 20:53 | 33.40609 | -116.36148 | 22978 ft | 555 kts | 45° |
| 2026-05-04 20:53 | 33.43024 | -116.32554 | 22979 ft | 555 kts | 57° |
| 2026-05-04 20:53 | 33.44955 | -116.28556 | 22971 ft | 554 kts | 63° |
| 2026-05-04 20:53 | 33.46809 | -116.24526 | 22947 ft | 549 kts | 60° |
| 2026-05-04 20:54 | 33.48850 | -116.20677 | 22952 ft | 546 kts | 55° |
| 2026-05-04 20:54 | 33.51087 | -116.16991 | 23195 ft | 546 kts | 51° |
| 2026-05-04 20:54 | 33.53472 | -116.13461 | 24056 ft | 546 kts | 49° |
| 2026-05-04 20:54 | 33.55942 | -116.09986 | 24738 ft | 549 kts | 48° |
| 2026-05-04 20:55 | 33.58502 | -116.06582 | 25396 ft | 551 kts | 45° |
| 2026-05-04 20:55 | 33.61244 | -116.03361 | 26046 ft | 553 kts | 40° |
| 2026-05-04 20:55 | 33.64191 | -116.00380 | 26711 ft | 555 kts | 37° |
| 2026-05-04 20:55 | 33.67077 | -115.97286 | 27350 ft | 558 kts | 43° |
| 2026-05-04 20:56 | 33.69838 | -115.93995 | 27942 ft | 562 kts | 44° |
| 2026-05-04 20:56 | 33.72575 | -115.90648 | 28726 ft | 561 kts | 45° |
| 2026-05-04 20:56 | 33.75316 | -115.87301 | 29334 ft | 563 kts | 45° |
| 2026-05-04 20:56 | 33.78090 | -115.83959 | 29961 ft | 565 kts | 44° |
| 2026-05-04 20:57 | 33.80892 | -115.80631 | 30476 ft | 568 kts | 44° |
| 2026-05-04 20:57 | 33.83718 | -115.77299 | 30942 ft | 570 kts | 44° |
| 2026-05-04 20:57 | 33.86545 | -115.73953 | 31474 ft | 571 kts | 44° |
| 2026-05-04 20:57 | 33.89381 | -115.70589 | 31947 ft | 573 kts | 44° |
| 2026-05-04 20:58 | 33.91259 | -115.68356 | 32273 ft | 574 kts | 44° |
| 2026-05-04 20:58 | 33.94104 | -115.64964 | 32748 ft | 576 kts | 44° |
| 2026-05-04 20:58 | 33.95620 | -115.63152 | 32970 ft | 577 kts | 43° |
| 2026-05-04 20:59 | 33.97335 | -115.61088 | 33291 ft | 577 kts | 43° |
| 2026-05-04 20:59 | 34.00160 | -115.57655 | 33787 ft | 578 kts | 43° |
| 2026-05-04 21:00 | 34.02984 | -115.54195 | 34208 ft | 579 kts | 44° |
| 2026-05-04 21:00 | 34.05795 | -115.50730 | 34715 ft | 576 kts | 44° |
| 2026-05-04 21:00 | 34.08590 | -115.47274 | 35163 ft | 576 kts | 44° |
| 2026-05-04 21:00 | 34.11372 | -115.43832 | 35638 ft | 573 kts | 42° |
| 2026-05-04 21:01 | 34.14275 | -115.40544 | 35971 ft | 574 kts | 38° |
| 2026-05-04 21:01 | 34.17345 | -115.37433 | 36090 ft | 578 kts | 32° |
| 2026-05-04 21:01 | 34.20680 | -115.34824 | 36245 ft | 573 kts | 20° |
| 2026-05-04 21:01 | 34.24333 | -115.32992 | 36615 ft | 557 kts | 7° |
| 2026-05-04 21:02 | 34.28049 | -115.31987 | 37123 ft | 539 kts | 357° |
| 2026-05-04 21:02 | 34.31737 | -115.31433 | 37581 ft | 532 kts | 353° |
| 2026-05-04 21:02 | 34.35410 | -115.30995 | 37982 ft | 530 kts | 354° |
| 2026-05-04 21:02 | 34.39074 | -115.30505 | 38389 ft | 530 kts | 355° |
| 2026-05-04 21:03 | 34.42684 | -115.29930 | 38721 ft | 531 kts | 356° |
| 2026-05-04 21:03 | 34.46387 | -115.29258 | 38844 ft | 531 kts | 357° |
| 2026-05-04 21:03 | 34.53627 | -115.27810 | 38863 ft | 530 kts | 358° |
| 2026-05-04 21:04 | 34.60888 | -115.26310 | 38851 ft | 529 kts | 358° |
| 2026-05-04 21:04 | 34.68146 | -115.24825 | 38852 ft | 529 kts | 358° |
| 2026-05-04 21:05 | 34.75409 | -115.23350 | 38871 ft | 529 kts | 358° |
| 2026-05-04 21:05 | 34.82653 | -115.21875 | 38851 ft | 527 kts | 358° |
| 2026-05-04 21:06 | 34.89891 | -115.20401 | 38855 ft | 527 kts | 358° |
| 2026-05-04 21:06 | 34.97124 | -115.18925 | 38854 ft | 527 kts | 358° |
| 2026-05-04 21:07 | 35.04358 | -115.17440 | 38863 ft | 527 kts | 358° |
| 2026-05-04 21:07 | 35.11580 | -115.15951 | 38866 ft | 526 kts | 358° |
| 2026-05-04 21:08 | 35.18802 | -115.14468 | 38873 ft | 526 kts | 358° |
| 2026-05-04 21:08 | 35.26024 | -115.12984 | 38874 ft | 526 kts | 358° |
| 2026-05-04 21:09 | 35.33234 | -115.11502 | 38863 ft | 525 kts | 358° |
| 2026-05-04 21:09 | 35.40442 | -115.10021 | 38879 ft | 524 kts | 358° |
| 2026-05-04 21:10 | 35.47637 | -115.08336 | 38904 ft | 535 kts | 6° |
| 2026-05-04 21:10 | 35.51165 | -115.06705 | 38880 ft | 550 kts | 19° |
| 2026-05-04 21:10 | 35.54472 | -115.04242 | 38872 ft | 563 kts | 32° |
| 2026-05-04 21:11 | 35.57416 | -115.01023 | 38853 ft | 571 kts | 44° |
| 2026-05-04 21:11 | 35.59968 | -114.97255 | 38854 ft | 578 kts | 51° |
| 2026-05-04 21:11 | 35.64817 | -114.89314 | 38857 ft | 582 kts | 50° |
| 2026-05-04 21:12 | 35.69970 | -114.81645 | 38857 ft | 581 kts | 46° |
| 2026-05-04 21:12 | 35.75338 | -114.74256 | 38814 ft | 580 kts | 45° |
| 2026-05-04 21:13 | 35.80751 | -114.66900 | 38813 ft | 581 kts | 44° |
| 2026-05-04 21:13 | 35.86147 | -114.59487 | 38799 ft | 581 kts | 45° |
| 2026-05-04 21:14 | 35.91527 | -114.52042 | 38779 ft | 581 kts | 45° |
| 2026-05-04 21:14 | 35.96859 | -114.44644 | 38758 ft | 581 kts | 45° |
| 2026-05-04 21:15 | 36.02220 | -114.37194 | 38745 ft | 581 kts | 45° |
| 2026-05-04 21:15 | 36.07711 | -114.29929 | 38749 ft | 576 kts | 36° |
| 2026-05-04 21:16 | 36.10888 | -114.26998 | 38771 ft | 565 kts | 24° |
| 2026-05-04 21:16 | 36.14336 | -114.24794 | 38755 ft | 552 kts | 13° |
| 2026-05-04 21:16 | 36.21497 | -114.21523 | 38751 ft | 547 kts | 9° |
| 2026-05-04 21:17 | 36.28640 | -114.18150 | 38754 ft | 552 kts | 13° |
| 2026-05-04 21:17 | 36.35723 | -114.14383 | 38775 ft | 555 kts | 14° |
| 2026-05-04 21:18 | 36.42796 | -114.10469 | 38770 ft | 558 kts | 15° |
| 2026-05-04 21:18 | 36.49886 | -114.06543 | 38755 ft | 558 kts | 14° |
| 2026-05-04 21:19 | 36.56958 | -114.02642 | 38768 ft | 555 kts | 14° |
| 2026-05-04 21:19 | 36.64016 | -113.98757 | 38782 ft | 556 kts | 14° |
| 2026-05-04 21:20 | 36.71116 | -113.94846 | 38779 ft | 559 kts | 14° |
| 2026-05-04 21:20 | 36.78224 | -113.90909 | 38775 ft | 559 kts | 15° |
| 2026-05-04 21:21 | 36.85330 | -113.86941 | 38760 ft | 561 kts | 16° |
| 2026-05-04 21:21 | 36.92288 | -113.82343 | 38792 ft | 564 kts | 15° |
| 2026-05-04 21:22 | 36.99537 | -113.78740 | 38799 ft | 561 kts | 12° |
| 2026-05-04 21:22 | 37.06771 | -113.75007 | 38873 ft | 564 kts | 15° |
| 2026-05-04 21:23 | 37.10363 | -113.73017 | 38764 ft | 565 kts | 16° |
| 2026-05-04 21:23 | 37.13929 | -113.70956 | 38864 ft | 563 kts | 15° |
| 2026-05-04 21:23 | 37.21120 | -113.67129 | 38619 ft | 561 kts | 13° |
| 2026-05-04 21:24 | 37.28229 | -113.63032 | 38608 ft | 564 kts | 17° |
| 2026-05-04 21:24 | 37.31776 | -113.60921 | 38734 ft | 565 kts | 16° |
| 2026-05-04 21:24 | 37.35341 | -113.58882 | 38796 ft | 564 kts | 15° |
| 2026-05-04 21:25 | 37.42478 | -113.54854 | 38772 ft | 560 kts | 15° |
| 2026-05-04 21:25 | 37.46033 | -113.52858 | 38984 ft | 559 kts | 16° |
| 2026-05-04 21:25 | 37.49568 | -113.50833 | 39166 ft | 559 kts | 15° |
| 2026-05-04 21:26 | 37.56595 | -113.46810 | 38952 ft | 559 kts | 16° |
| 2026-05-04 21:26 | 37.60133 | -113.44798 | 38833 ft | 560 kts | 15° |
| 2026-05-04 21:26 | 37.63690 | -113.42809 | 38787 ft | 557 kts | 15° |
| 2026-05-04 21:27 | 37.70822 | -113.39159 | 38668 ft | 549 kts | 15° |
| 2026-05-04 21:27 | 37.74289 | -113.37202 | 37784 ft | 545 kts | 15° |
| 2026-05-04 21:27 | 37.77682 | -113.35268 | 37931 ft | 531 kts | 16° |
| 2026-05-04 21:28 | 37.81033 | -113.33265 | 38163 ft | 535 kts | 17° |
| 2026-05-04 21:28 | 37.84407 | -113.31232 | 38301 ft | 539 kts | 17° |
| 2026-05-04 21:28 | 37.91300 | -113.27191 | 38265 ft | 555 kts | 17° |
| 2026-05-04 21:29 | 37.94783 | -113.25155 | 38456 ft | 552 kts | 18° |
| 2026-05-04 21:29 | 37.98261 | -113.23086 | 38405 ft | 552 kts | 17° |
| 2026-05-04 21:29 | 38.01757 | -113.21077 | 38646 ft | 551 kts | 17° |
| 2026-05-04 21:29 | 38.04484 | -113.19509 | 38643 ft | 552 kts | 16° |
| 2026-05-04 21:30 | 38.06838 | -113.18195 | 38630 ft | 550 kts | 15° |
| 2026-05-04 21:30 | 38.20789 | -113.10287 | 38885 ft | 546 kts | 17° |
| 2026-05-04 21:30 | 38.34358 | -113.02921 | 38559 ft | 508 kts | 13° |
| 2026-05-04 21:31 | 38.60561 | -112.88463 | 30640 ft | 502 kts | 17° |
| 2026-05-04 21:31 | 38.73174 | -112.81633 | 26358 ft | 494 kts | 17° |
| 2026-05-04 21:31 | 38.84601 | -112.75224 | 26656 ft | 428 kts | 18° |
| 2026-05-04 21:32 | 38.95579 | -112.69483 | 26697 ft | 424 kts | 17° |
| 2026-05-04 21:32 | 39.06520 | -112.63621 | 26807 ft | 426 kts | 17° |
| 2026-05-04 21:32 | 39.17379 | -112.57778 | 26415 ft | 407 kts | 20° |
| 2026-05-04 21:32 | 39.26786 | -112.52039 | 25748 ft | 346 kts | 21° |
| 2026-05-04 21:33 | 39.36103 | -112.46634 | 22454 ft | 373 kts | 24° |
| 2026-05-04 21:33 | 39.45560 | -112.41011 | 20491 ft | 388 kts | 24° |
| 2026-05-04 21:33 | 39.55477 | -112.35740 | 19460 ft | 382 kts | 21° |
| 2026-05-04 21:33 | 39.65181 | -112.30526 | 18514 ft | 375 kts | 24° |
| 2026-05-04 21:34 | 39.74243 | -112.24619 | 17362 ft | 347 kts | 25° |
| 2026-05-04 21:34 | 39.82848 | -112.19475 | 15761 ft | 336 kts | 24° |
| 2026-05-04 21:34 | 39.91333 | -112.14750 | 14197 ft | 327 kts | 22° |
| 2026-05-04 21:34 | 39.99626 | -112.10203 | 13540 ft | 323 kts | 26° |
| 2026-05-04 21:35 | 40.07593 | -112.05462 | 12818 ft | 302 kts | 28° |
| 2026-05-04 21:35 | 40.15020 | -112.00982 | 11753 ft | 284 kts | 26° |
| 2026-05-04 21:35 | 40.21964 | -111.96429 | 11157 ft | 281 kts | 28° |
| 2026-05-04 21:35 | 40.29114 | -111.92499 | 10534 ft | 275 kts | 9° |
| 2026-05-04 21:36 | 40.34660 | -111.91929 | 11178 ft | 280 kts | 355° |
| 2026-05-04 21:36 | 40.36601 | -111.92074 | 11263 ft | 280 kts | 357° |
| 2026-05-04 21:36 | 40.38550 | -111.92153 | 11265 ft | 280 kts | 358° |
| 2026-05-04 21:36 | 40.40504 | -111.92259 | 11054 ft | 280 kts | 355° |
| 2026-05-04 21:37 | 40.42440 | -111.92462 | 10822 ft | 278 kts | 354° |
| 2026-05-04 21:37 | 40.44377 | -111.92727 | 10387 ft | 282 kts | 353° |
| 2026-05-04 21:37 | 40.46336 | -111.93009 | 9903 ft | 283 kts | 352° |
| 2026-05-04 21:37 | 40.48278 | -111.93390 | 9423 ft | 282 kts | 347° |
| 2026-05-04 21:38 | 40.50220 | -111.93990 | 8656 ft | 291 kts | 343° |
| 2026-05-04 21:38 | 40.52211 | -111.94637 | 7960 ft | 299 kts | 345° |
| 2026-05-04 21:38 | 40.54247 | -111.95173 | 7478 ft | 295 kts | 351° |
| 2026-05-04 21:38 | 40.56255 | -111.95236 | 7283 ft | 283 kts | 359° |
| 2026-05-04 21:39 | 40.58171 | -111.95205 | 7215 ft | 265 kts | 358° |
| 2026-05-04 21:39 | 40.59929 | -111.95156 | 7239 ft | 237 kts | 357° |
| 2026-05-04 21:39 | 40.61436 | -111.95177 | 7217 ft | 205 kts | 358° |
| 2026-05-04 21:39 | 40.62809 | -111.95221 | 7047 ft | 193 kts | 349° |
| 2026-05-04 21:40 | 40.64110 | -111.95557 | 6991 ft | 188 kts | 343° |
| 2026-05-04 21:40 | 40.65328 | -111.95958 | 6917 ft | 167 kts | 347° |
| 2026-05-04 21:40 | 40.66441 | -111.96164 | 6544 ft | 160 kts | 356° |
| 2026-05-04 21:40 | 40.67535 | -111.96212 | 6329 ft | 157 kts | 357° |
| 2026-05-04 21:41 | 40.68668 | -111.96274 | 6091 ft | 168 kts | 353° |
| 2026-05-04 21:41 | 40.69814 | -111.96418 | 5863 ft | 163 kts | 350° |
| 2026-05-04 21:41 | 40.70946 | -111.96575 | 5550 ft | 165 kts | 352° |
| 2026-05-04 21:41 | 40.72101 | -111.96668 | 5283 ft | 168 kts | 353° |
| 2026-05-04 21:42 | 40.73272 | -111.96797 | 5057 ft | 166 kts | 350° |
| 2026-05-04 21:42 | 40.74404 | -111.96956 | 4842 ft | 164 kts | 351° |
| 2026-05-04 21:42 | 40.75551 | -111.97111 | 4698 ft | 164 kts | 353° |
| 2026-05-04 21:42 | 40.76703 | -111.97203 | 4430 ft | 168 kts | 349° |
| 2026-05-04 21:43 | 40.77795 | -111.97354 | 4256 ft | 144 kts | 355° |
| 2026-05-04 21:43 | 40.78633 | -111.97474 | 4237 ft | 83 kts | 340° |
| 2026-05-04 21:43 | 40.78904 | -111.97681 | 4242 ft | 21 kts | 335° |